Time;durP1;ratioP1;P1;durP2;ratioP2;P2;SDS_P1;SDS_P2;PMS_P1;PMS_P2;Temp;Humidity;BMP_temperature;BMP_pressure;BME280_temperature;BME280_humidity;BME280_pressure;Samples;Min_cycle;Max_cycle;Signal;HPM_P1;HPM_P2
2021/05/20 00:00:56;;;;;;;8.93;6.05;;;;;;;12.10;64.48;100144.59;4963070;28;97157;-83
2021/05/20 00:03:22;;;;;;;9.82;5.70;;;;;;;12.07;64.91;100148.25;4964181;28;96725;-82
2021/05/20 00:05:47;;;;;;;7.78;5.47;;;;;;;12.10;64.43;100152.50;4962295;28;96979;-83
2021/05/20 00:08:13;;;;;;;10.10;5.90;;;;;;;12.09;64.73;100146.38;4962700;28;99512;-82
2021/05/20 00:10:38;;;;;;;11.05;5.72;;;;;;;11.96;65.09;100142.59;4962671;28;97396;-84
2021/05/20 00:13:04;;;;;;;14.80;6.40;;;;;;;11.92;65.10;100144.47;4961715;28;97251;-81
2021/05/20 00:15:30;;;;;;;7.63;5.50;;;;;;;11.93;64.83;100153.22;4978266;28;99516;-83
2021/05/20 00:17:55;;;;;;;9.73;6.03;;;;;;;11.99;64.93;100160.88;4977928;28;96960;-83
2021/05/20 00:20:21;;;;;;;11.18;5.78;;;;;;;11.92;64.87;100160.25;4963895;28;96573;-83
2021/05/20 00:22:46;;;;;;;11.38;6.57;;;;;;;11.87;64.83;100156.09;4963708;28;97309;-80
2021/05/20 00:25:12;;;;;;;8.98;5.72;;;;;;;11.82;65.37;100156.28;4962241;28;99811;-83
2021/05/20 00:27:38;;;;;;;8.85;5.80;;;;;;;11.87;65.46;100162.25;4964066;28;97005;-83
2021/05/20 00:30:06;;;;;;;8.85;6.10;;;;;;;11.70;65.42;100168.16;4966229;28;96643;-82
2021/05/20 00:32:32;;;;;;;8.95;5.45;;;;;;;11.67;65.57;100167.44;4983463;28;96596;-83
2021/05/20 00:34:57;;;;;;;11.07;5.32;;;;;;;11.68;65.92;100166.50;4967508;28;99700;-81
2021/05/20 00:37:23;;;;;;;10.82;5.70;;;;;;;11.67;65.26;100170.06;4987090;28;96663;-82
2021/05/20 00:39:48;;;;;;;11.68;5.38;;;;;;;11.69;65.52;100176.09;4989582;28;96333;-81
2021/05/20 00:42:14;;;;;;;8.18;5.90;;;;;;;11.64;65.20;100178.06;4972737;28;96529;-83
2021/05/20 00:47:22;;;;;;;10.75;5.97;;;;;;;11.51;65.47;100170.66;5011050;28;99371;-84
2021/05/20 00:49:48;;;;;;;9.10;5.38;;;;;;;11.54;65.52;100169.69;4997423;28;95812;-83
2021/05/20 00:52:15;;;;;;;9.82;5.05;;;;;;;11.56;65.39;100181.00;4964124;28;96829;-85
2021/05/20 00:54:41;;;;;;;8.23;5.45;;;;;;;11.53;65.04;100176.72;4996929;28;96535;-85
2021/05/20 00:57:08;;;;;;;8.65;5.60;;;;;;;11.50;64.87;100174.22;4998044;28;96407;-84
2021/05/20 00:59:34;;;;;;;7.75;4.95;;;;;;;11.35;65.48;100174.84;5034525;22;100171;-85
2021/05/20 01:02:00;;;;;;;9.02;5.45;;;;;;;11.42;65.45;100181.53;4981294;28;96295;-84
2021/05/20 01:04:26;;;;;;;6.90;4.72;;;;;;;11.36;65.20;100176.53;4964121;28;99454;-85
2021/05/20 01:06:52;;;;;;;8.77;5.20;;;;;;;11.35;65.47;100181.88;4980214;28;99482;-84
2021/05/20 01:09:18;;;;;;;7.80;5.15;;;;;;;11.44;65.36;100184.97;4964405;28;96364;-84
2021/05/20 01:11:44;;;;;;;8.88;5.10;;;;;;;11.38;65.25;100176.50;4980341;28;96521;-85
2021/05/20 01:14:12;;;;;;;11.90;5.38;;;;;;;11.35;65.71;100187.97;4963432;28;99618;-84
2021/05/20 01:16:38;;;;;;;7.13;4.70;;;;;;;11.30;65.75;100185.50;5184928;22;97964;-83
2021/05/20 01:19:11;;;;;;;8.60;4.55;;;;;;;11.42;65.53;100191.22;4963862;28;96638;-84
2021/05/20 01:21:37;;;;;;;8.70;5.43;;;;;;;11.46;65.14;100196.31;4964178;28;96472;-84
2021/05/20 01:24:04;;;;;;;6.82;5.15;;;;;;;11.31;65.49;100189.88;4963477;28;99489;-84
2021/05/20 01:26:30;;;;;;;6.63;5.05;;;;;;;11.16;65.87;100187.81;4963875;28;99158;-85
2021/05/20 01:28:56;;;;;;;8.63;4.85;;;;;;;11.23;65.90;100196.34;4964227;28;96600;-84
2021/05/20 01:31:22;;;;;;;10.23;5.68;;;;;;;11.18;66.05;100187.78;4964088;28;96493;-84
2021/05/20 01:33:48;;;;;;;10.45;6.13;;;;;;;11.15;65.96;100190.53;4962714;28;99727;-85
2021/05/20 01:36:14;;;;;;;8.73;4.97;;;;;;;11.10;65.62;100201.19;4979507;28;99396;-84
2021/05/20 01:41:10;;;;;;;10.82;5.03;;;;;;;11.07;66.21;100206.56;4963877;28;96517;-85
2021/05/20 01:43:38;;;;;;;9.48;5.38;;;;;;;11.07;65.67;100199.53;4947207;28;99728;-85
2021/05/20 01:46:05;;;;;;;6.40;4.50;;;;;;;11.04;65.87;100204.91;4979633;28;99548;-84
2021/05/20 01:48:40;;;;;;;7.20;5.13;;;;;;;11.01;65.93;100206.81;4963814;28;96570;-85
2021/05/20 01:51:08;;;;;;;9.13;5.80;;;;;;;10.96;66.38;100204.34;4963275;28;96541;-84
2021/05/20 01:53:35;;;;;;;8.90;4.95;;;;;;;11.04;65.43;100201.44;4979175;28;99638;-85
2021/05/20 01:56:02;;;;;;;7.32;4.75;;;;;;;10.95;65.84;100201.78;4962581;28;96682;-83
2021/05/20 01:58:28;;;;;;;7.18;4.78;;;;;;;10.97;65.92;100216.56;4978934;28;96469;-85
2021/05/20 02:00:54;;;;;;;10.50;5.18;;;;;;;10.82;66.39;100210.13;4962355;28;96472;-84
2021/05/20 02:03:20;;;;;;;10.35;5.80;;;;;;;10.79;66.53;100212.84;4964218;28;99751;-85
2021/05/20 02:05:46;;;;;;;6.68;5.18;;;;;;;10.84;66.03;100210.91;4965722;28;96470;-85
2021/05/20 02:08:12;;;;;;;11.32;5.45;;;;;;;10.81;66.11;100205.75;4981830;28;96645;-85
2021/05/20 02:10:38;;;;;;;8.68;5.10;;;;;;;10.75;66.05;100207.75;4965969;28;96704;-85
2021/05/20 02:13:04;;;;;;;7.32;5.20;;;;;;;10.73;66.09;100210.44;4948778;28;99418;-85
2021/05/20 02:15:30;;;;;;;10.30;5.22;;;;;;;10.77;65.83;100213.81;4980279;28;99703;-85
2021/05/20 02:17:56;;;;;;;8.73;5.68;;;;;;;10.67;65.93;100215.91;4981083;28;96459;-84
2021/05/20 02:20:22;;;;;;;9.75;5.95;;;;;;;10.57;66.55;100220.63;4983998;28;96394;-85
2021/05/20 02:22:51;;;;;;;6.55;5.10;;;;;;;10.54;66.24;100207.63;4968930;28;99518;-85
2021/05/20 02:25:17;;;;;;;11.52;5.43;;;;;;;10.52;66.37;100214.69;4984899;28;99595;-85
2021/05/20 02:31:31;;;;;;;7.80;5.70;;;;;;;10.46;66.79;100209.66;5429697;22;97733;-85
2021/05/20 02:33:58;;;;;;;9.68;5.78;;;;;;;10.50;66.65;100215.66;5003508;28;99447;-83
2021/05/20 02:36:24;;;;;;;9.30;5.70;;;;;;;10.41;66.52;100209.84;5003499;28;99123;-84
2021/05/20 02:38:50;;;;;;;7.68;5.93;;;;;;;10.49;66.41;100216.56;5003275;28;96563;-85
2021/05/20 02:41:16;;;;;;;8.95;5.43;;;;;;;10.46;66.81;100206.19;5019882;28;96481;-84
2021/05/20 02:43:42;;;;;;;10.30;6.40;;;;;;;10.35;66.69;100207.41;5002505;28;100879;-84
2021/05/20 02:46:07;;;;;;;9.27;5.45;;;;;;;10.47;66.15;100213.13;5003590;28;96661;-85
2021/05/20 02:48:33;;;;;;;7.80;5.20;;;;;;;10.36;66.57;100213.53;5003216;28;96616;-85
2021/05/20 02:50:59;;;;;;;7.78;5.47;;;;;;;10.30;66.43;100211.97;4987310;28;97701;-82
2021/05/20 02:53:25;;;;;;;9.07;5.70;;;;;;;10.27;66.63;100219.97;5002596;28;99306;-85
2021/05/20 02:55:51;;;;;;;7.55;5.50;;;;;;;10.27;66.80;100219.97;5003178;28;99477;-85
2021/05/20 02:58:19;;;;;;;11.73;5.68;;;;;;;10.25;66.43;100211.25;5004633;28;96614;-85
2021/05/20 03:00:46;;;;;;;9.15;5.57;;;;;;;10.23;66.81;100220.91;5020269;28;96578;-85
2021/05/20 03:03:14;;;;;;;8.20;5.50;;;;;;;10.28;66.69;100233.91;5007069;28;100614;-85
2021/05/20 03:08:52;;;;;;;10.00;5.18;;;;;;;10.28;66.60;100234.78;4959768;28;96016;-84
2021/05/20 03:11:17;;;;;;;9.20;5.13;;;;;;;10.25;66.50;100231.38;4946011;28;96350;-85
2021/05/20 03:13:43;;;;;;;15.40;5.68;;;;;;;10.32;66.76;100241.63;4944681;28;99601;-85
2021/05/20 03:16:09;;;;;;;11.05;5.95;;;;;;;10.38;66.13;100230.94;5121243;22;100992;-84
2021/05/20 03:18:35;;;;;;;8.77;5.72;;;;;;;10.45;65.89;100234.19;4979222;28;96659;-85
2021/05/20 03:21:01;;;;;;;10.50;4.97;;;;;;;10.36;66.52;100245.03;4963015;28;96547;-83
2021/05/20 03:23:26;;;;;;;8.50;5.65;;;;;;;10.35;66.13;100236.25;4962659;28;100645;-85
2021/05/20 03:25:52;;;;;;;9.93;6.15;;;;;;;10.36;65.84;100237.16;4963206;28;96707;-85
2021/05/20 03:28:18;;;;;;;13.45;6.07;;;;;;;10.26;66.38;100233.94;4963099;28;96480;-85
2021/05/20 03:30:44;;;;;;;14.75;5.95;;;;;;;10.20;66.28;100248.09;4963017;28;96623;-85
2021/05/20 03:33:10;;;;;;;12.32;6.28;;;;;;;10.19;66.75;100243.78;4978889;28;96540;-85
2021/05/20 03:35:36;;;;;;;13.35;6.30;;;;;;;10.25;66.37;100244.50;4962397;28;99363;-85
2021/05/20 03:38:03;;;;;;;12.32;6.13;;;;;;;10.32;66.63;100241.63;4962380;28;96546;-82
2021/05/20 03:40:28;;;;;;;13.65;6.70;;;;;;;10.43;66.37;100236.00;4984494;28;97508;-85
2021/05/20 03:42:54;;;;;;;8.60;6.20;;;;;;;10.43;66.15;100243.88;4967065;28;99586;-85
2021/05/20 03:45:20;;;;;;;10.27;6.53;;;;;;;10.42;66.06;100239.56;5038449;22;99473;-84
2021/05/20 03:47:48;;;;;;;9.15;5.97;;;;;;;10.41;66.15;100243.06;4963852;28;96475;-85
2021/05/20 03:50:14;;;;;;;8.63;6.00;;;;;;;10.45;66.33;100242.06;4947535;28;96894;-84
2021/05/20 03:52:40;;;;;;;9.68;6.40;;;;;;;10.53;65.98;100252.28;4962470;28;100886;-85
2021/05/20 03:55:08;;;;;;;14.35;6.00;;;;;;;10.58;65.69;100253.00;4946463;28;99550;-83
2021/05/20 03:57:33;;;;;;;8.63;7.15;;;;;;;10.51;65.68;100239.22;4979456;28;97016;-84
2021/05/20 03:59:59;;;;;;;8.70;6.80;;;;;;;10.62;65.62;100244.97;4980137;28;96521;-85
2021/05/20 04:02:25;;;;;;;11.52;6.30;;;;;;;10.61;65.55;100237.13;4962305;28;99774;-85
2021/05/20 04:04:51;;;;;;;21.30;7.32;;;;;;;10.63;65.86;100251.06;4962682;28;99118;-85
2021/05/20 04:07:16;;;;;;;14.27;6.55;;;;;;;10.74;65.50;100254.16;4963380;28;96502;-84
2021/05/20 04:09:42;;;;;;;15.82;6.05;;;;;;;10.82;65.73;100267.88;4979787;28;96787;-85
2021/05/20 04:12:09;;;;;;;9.93;6.20;;;;;;;10.78;65.48;100254.91;4979512;28;96799;-85
2021/05/20 04:14:35;;;;;;;9.75;6.50;;;;;;;10.83;65.16;100263.50;4962005;28;99309;-84
2021/05/20 04:17:01;;;;;;;11.85;6.10;;;;;;;10.99;64.63;100246.25;4963083;28;96559;-84
2021/05/20 04:19:27;;;;;;;13.23;5.82;;;;;;;11.18;64.54;100262.19;4963204;28;96864;-85
2021/05/20 04:21:53;;;;;;;9.35;6.22;;;;;;;11.09;64.51;100259.91;4963118;28;99741;-85
2021/05/20 04:24:21;;;;;;;14.13;6.20;;;;;;;11.19;64.34;100253.38;4947223;28;99471;-85
2021/05/20 04:27:13;;;;;;;11.52;6.05;;;;;;;11.31;64.15;100259.94;4963361;28;95816;-85
2021/05/20 04:29:39;;;;;;;8.57;5.88;;;;;;;11.42;63.73;100264.81;4980901;28;96287;-84
2021/05/20 04:32:05;;;;;;;8.38;5.97;;;;;;;11.58;63.31;100268.56;4963760;28;99615;-83
2021/05/20 04:34:31;;;;;;;9.93;6.03;;;;;;;11.72;64.07;100271.50;4963765;28;99449;-84
2021/05/20 04:37:08;;;;;;;9.70;5.80;;;;;;;11.88;63.75;100269.16;4965096;28;96586;-85
2021/05/20 04:39:34;;;;;;;12.80;5.90;;;;;;;12.05;63.11;100272.88;4965884;28;96080;-86
2021/05/20 04:42:00;;;;;;;7.72;5.55;;;;;;;12.13;62.94;100279.53;4981237;28;96846;-85
2021/05/20 04:44:26;;;;;;;9.35;5.65;;;;;;;12.26;62.58;100276.41;4981086;28;96721;-85
2021/05/20 04:46:52;;;;;;;9.18;5.95;;;;;;;12.23;62.90;100280.84;4966355;28;96545;-85
2021/05/20 04:49:25;;;;;;;8.93;5.40;;;;;;;12.41;62.50;100289.75;4966984;28;95771;-85
2021/05/20 04:51:51;;;;;;;7.20;4.95;;;;;;;12.72;61.60;100280.56;4965617;28;99851;-85
2021/05/20 05:15:44;;;;;;;11.05;5.22;;;;;;;14.96;56.75;100290.97;5923198;22;98585;-84
2021/05/20 05:18:09;;;;;;;6.85;4.63;;;;;;;15.07;56.19;100285.13;4938346;28;96607;-82
2021/05/20 05:20:35;;;;;;;7.93;5.03;;;;;;;15.29;55.57;100295.41;4950265;28;96523;-86
2021/05/20 05:23:03;;;;;;;7.00;4.88;;;;;;;15.41;54.68;100297.38;4946591;28;96863;-87
2021/05/20 05:25:29;;;;;;;6.03;5.07;;;;;;;15.68;54.69;100284.47;4942930;28;99581;-89
2021/05/20 05:27:54;;;;;;;7.68;5.65;;;;;;;15.77;53.95;100291.03;4943515;28;96611;-88
2021/05/20 05:30:20;;;;;;;5.78;4.93;;;;;;;15.94;53.82;100288.31;4942767;28;97017;-89
2021/05/20 05:32:46;;;;;;;7.68;4.78;;;;;;;16.34;53.35;100288.63;4926693;28;100945;-88
2021/05/20 05:35:12;;;;;;;10.52;5.50;;;;;;;16.52;52.77;100292.88;4942195;28;98334;-83
2021/05/20 05:37:37;;;;;;;7.93;5.20;;;;;;;16.78;51.74;100290.47;4943065;28;96568;-88
2021/05/20 05:40:06;;;;;;;8.60;5.47;;;;;;;17.58;50.44;100285.53;4943278;28;96824;-88
2021/05/20 05:42:31;;;;;;;5.47;4.30;;;;;;;18.63;48.88;100296.34;4957526;28;101733;-86
2021/05/20 05:44:57;;;;;;;5.32;4.40;;;;;;;19.93;46.17;100302.34;4942666;28;98095;-86
2021/05/20 05:47:22;;;;;;;8.65;4.53;;;;;;;20.92;44.08;100296.66;4925318;28;97113;-85
2021/05/20 05:49:50;;;;;;;5.90;4.35;;;;;;;22.03;42.34;100296.72;4926556;28;97019;-88
2021/05/20 05:52:21;;;;;;;6.40;3.80;;;;;;;22.56;40.53;100295.91;4925179;28;102098;-87
2021/05/20 05:54:48;;;;;;;10.35;4.25;;;;;;;23.21;39.47;100293.91;4958990;28;97461;-87
2021/05/20 05:57:14;;;;;;;10.85;4.55;;;;;;;23.99;38.48;100302.22;4941799;28;96701;-84
2021/05/20 05:59:39;;;;;;;13.07;3.70;;;;;;;24.12;38.58;100300.13;4942400;28;96868;-88
2021/05/20 06:02:05;;;;;;;5.45;4.53;;;;;;;24.44;37.18;100299.88;4941744;28;101664;-88
2021/05/20 06:04:31;;;;;;;4.03;3.60;;;;;;;25.06;36.96;100298.47;4941097;28;100193;-88
2021/05/20 06:06:57;;;;;;;5.18;4.18;;;;;;;25.67;35.50;100293.59;4942317;28;96486;-88
2021/05/20 06:09:22;;;;;;;4.72;3.92;;;;;;;26.30;34.94;100292.75;4941274;28;96581;-87
2021/05/20 06:11:48;;;;;;;9.52;3.97;;;;;;;26.69;34.59;100295.97;4925492;28;101111;-87
2021/05/20 06:14:14;;;;;;;7.90;5.00;;;;;;;26.94;34.43;100302.38;4941682;28;98489;-86
2021/05/20 06:16:41;;;;;;;7.32;4.15;;;;;;;27.04;33.55;100300.41;4924950;28;97288;-88
2021/05/20 06:19:08;;;;;;;5.35;4.28;;;;;;;27.09;33.62;100294.53;4926535;28;96622;-88
2021/05/20 06:21:34;;;;;;;12.75;4.97;;;;;;;26.96;34.10;100312.97;4957506;28;98635;-88
2021/05/20 06:23:59;;;;;;;16.15;4.78;;;;;;;27.08;34.01;100300.91;4940896;28;100157;-91
2021/05/20 06:26:26;;;;;;;5.75;3.63;;;;;;;27.68;33.46;100295.50;4924276;28;96922;-82
2021/05/20 06:28:52;;;;;;;5.65;3.70;;;;;;;27.18;33.59;100303.53;4941393;28;97057;-82
2021/05/20 06:31:17;;;;;;;5.05;3.75;;;;;;;27.67;33.51;100304.59;4956063;28;98175;-81
2021/05/20 06:33:43;;;;;;;4.68;3.72;;;;;;;28.01;33.24;100308.25;4940346;28;101170;-82
2021/05/20 06:36:10;;;;;;;5.03;3.97;;;;;;;27.59;32.75;100307.25;4954612;28;97030;-90
2021/05/20 06:38:36;;;;;;;6.65;4.13;;;;;;;28.28;32.12;100305.28;4912717;28;97297;-89
2021/05/20 06:41:05;;;;;;;15.80;5.07;;;;;;;29.20;31.50;100307.75;4923218;28;101448;-91
2021/05/20 06:43:30;;;;;;;17.70;4.53;;;;;;;29.53;30.56;100308.50;4939545;28;101180;-91
2021/05/20 06:45:57;;;;;;;8.35;4.68;;;;;;;30.06;30.07;100311.47;4917801;28;97215;-90
2021/05/20 06:48:22;;;;;;;6.35;5.05;;;;;;;30.00;29.58;100307.59;4937449;28;97280;-91
2021/05/20 06:50:48;;;;;;;6.43;3.47;;;;;;;30.06;29.51;100315.00;4930960;28;101790;-89
2021/05/20 06:53:22;;;;;;;4.10;3.70;;;;;;;30.17;29.50;100317.31;4933863;28;98078;-91
2021/05/20 06:55:52;;;;;;;7.28;4.35;;;;;;;30.49;28.79;100315.41;4935048;28;96829;-88
2021/05/20 07:01:03;;;;;;;27.10;6.30;;;;;;;30.58;29.19;100313.47;4950673;28;97601;-92
2021/05/20 07:03:28;;;;;;;20.45;4.25;;;;;;;30.89;28.32;100307.94;4920057;28;101460;-87
2021/05/20 07:05:55;;;;;;;7.53;3.15;;;;;;;30.78;28.38;100311.09;4929760;28;97042;-84
2021/05/20 07:08:21;;;;;;;8.88;3.25;;;;;;;32.11;27.05;100312.91;4924982;28;97118;-85
2021/05/20 07:10:46;;;;;;;7.65;6.50;;;;;;;31.93;27.17;100303.34;4914790;28;101694;-88
2021/05/20 07:13:12;;;;;;;5.88;3.95;;;;;;;31.89;26.54;100309.31;4943730;28;100326;-86
2021/05/20 07:15:38;;;;;;;11.50;9.98;;;;;;;31.94;26.75;100310.47;4926776;28;96718;-87
2021/05/20 07:18:04;;;;;;;11.57;3.85;;;;;;;32.36;26.96;100303.38;4929231;28;96798;-88
2021/05/20 07:20:29;;;;;;;4.00;3.20;;;;;;;32.87;25.78;100305.06;4943930;28;97162;-89
2021/05/20 07:22:55;;;;;;;3.85;2.55;;;;;;;32.94;25.80;100313.28;4926577;28;101673;-87
2021/05/20 07:25:20;;;;;;;4.00;3.35;;;;;;;33.28;25.28;100307.00;4913744;28;96741;-84
2021/05/20 07:27:46;;;;;;;3.83;2.72;;;;;;;33.29;25.57;100300.56;4939125;28;97223;-88
2021/05/20 07:30:12;;;;;;;12.05;11.15;;;;;;;33.44;25.36;100309.41;4905863;28;100352;-89
2021/05/20 07:32:38;;;;;;;5.25;2.97;;;;;;;33.59;25.51;100301.13;4937606;28;100553;-86
2021/05/20 07:35:06;;;;;;;10.82;10.02;;;;;;;33.13;25.11;100308.00;4941364;28;96819;-87
2021/05/20 07:37:31;;;;;;;7.07;2.92;;;;;;;33.45;25.13;100299.34;4948100;28;97295;-88
2021/05/20 07:39:57;;;;;;;7.55;5.28;;;;;;;34.04;24.39;100304.25;4940702;28;98148;-87
2021/05/20 07:42:22;;;;;;;5.32;4.60;;;;;;;33.99;24.11;100299.38;4923152;28;101584;-87
2021/05/20 07:44:53;;;;;;;8.63;7.75;;;;;;;33.80;24.32;100308.31;4940854;28;96827;-87
2021/05/20 07:47:19;;;;;;;8.90;8.30;;;;;;;34.12;24.13;100300.47;4974841;28;97338;-87
2021/05/20 07:49:44;;;;;;;9.82;8.70;;;;;;;33.75;24.82;100303.50;4927603;28;100168;-87
2021/05/20 07:52:10;;;;;;;9.40;8.60;;;;;;;33.83;24.13;100307.06;4939728;28;101917;-88
2021/05/20 07:54:36;;;;;;;9.30;8.30;;;;;;;33.84;24.52;100298.72;4921978;28;96879;-86
2021/05/20 07:57:03;;;;;;;9.55;8.73;;;;;;;34.15;24.85;100308.22;4937416;28;98749;-84
2021/05/20 07:59:28;;;;;;;8.90;8.27;;;;;;;34.39;24.02;100299.47;4939662;28;100506;-80
2021/05/20 08:04:48;;;;;;;9.40;8.70;;;;;;;34.22;24.23;100295.47;4929141;28;97371;-80
2021/05/20 08:07:27;;;;;;;8.77;8.15;;;;;;;34.34;24.05;100295.69;4939979;28;96884;-87
2021/05/20 08:12:30;;;;;;;9.45;8.85;;;;;;;34.40;24.00;100303.03;4966280;28;98515;-85
2021/05/20 08:14:56;;;;;;;9.88;9.20;;;;;;;34.20;24.21;100298.41;4936238;28;97336;-86
2021/05/20 08:17:22;;;;;;;10.23;9.35;;;;;;;34.99;23.89;100304.06;4938278;28;97342;-86
2021/05/20 08:19:47;;;;;;;9.63;8.20;;;;;;;35.19;23.29;100302.16;4955863;28;100903;-86
2021/05/20 08:22:13;;;;;;;5.13;3.00;;;;;;;35.11;23.35;100303.25;4923645;28;101389;-84
2021/05/20 08:24:39;;;;;;;9.70;9.10;;;;;;;35.32;23.00;100312.22;4939665;28;97321;-85
2021/05/20 08:27:05;;;;;;;10.50;8.75;;;;;;;35.24;23.44;100296.09;4939812;28;97235;-84
2021/05/20 08:29:31;;;;;;;9.18;8.48;;;;;;;35.89;23.40;100302.31;4955136;28;97916;-83
2021/05/20 08:31:57;;;;;;;9.10;8.50;;;;;;;34.35;23.79;100309.09;4939907;28;101294;-83
2021/05/20 08:34:22;;;;;;;9.38;8.75;;;;;;;34.87;23.97;100309.34;4922923;28;97454;-83
2021/05/20 08:36:48;;;;;;;10.15;9.15;;;;;;;35.76;23.54;100305.97;4939957;28;96944;-83
2021/05/20 08:39:15;;;;;;;10.82;8.55;;;;;;;33.86;25.14;100304.81;4938976;28;98498;-84
2021/05/20 08:41:42;;;;;;;10.15;9.18;;;;;;;31.89;26.94;100309.31;4939332;28;100619;-85
2021/05/20 08:44:13;;;;;;;10.18;9.20;;;;;;;33.70;25.72;100302.44;4939907;28;96717;-81
2021/05/20 08:46:39;;;;;;;10.65;9.75;;;;;;;33.84;25.22;100315.06;4939337;28;97160;-83
2021/05/20 08:49:14;;;;;;;9.88;8.90;;;;;;;34.48;24.44;100305.56;4935153;28;98163;-84
2021/05/20 08:51:49;;;;;;;9.93;8.90;;;;;;;33.86;24.85;100304.81;4922084;28;101479;-81
2021/05/20 08:54:16;;;;;;;8.77;8.07;;;;;;;32.28;26.39;100306.19;4939138;28;96886;-78
2021/05/20 08:56:43;;;;;;;8.98;8.18;;;;;;;30.54;28.06;100318.38;4932998;28;97071;-79
2021/05/20 08:59:09;;;;;;;9.90;8.90;;;;;;;29.77;28.37;100308.41;4921665;28;101579;-79
2021/05/20 09:01:36;;;;;;;9.57;8.68;;;;;;;31.34;26.40;100308.81;4924024;28;100500;-77
2021/05/20 09:04:02;;;;;;;3.55;2.42;;;;;;;30.24;28.32;100303.91;4942064;28;96847;-78
2021/05/20 09:06:43;;;;;;;5.75;2.75;;;;;;;31.27;27.45;100307.88;4941419;28;96932;-79
2021/05/20 09:09:15;;;;;;;2.97;2.22;;;;;;;31.89;26.74;100310.16;4955043;28;101121;-79
2021/05/20 09:11:49;;;;;;;4.72;2.10;;;;;;;31.74;25.87;100309.38;4954932;28;97895;-81
2021/05/20 09:14:33;;;;;;;4.45;2.10;;;;;;;30.81;26.77;100305.34;4939226;28;97388;-81
2021/05/20 09:17:11;;;;;;;3.50;1.88;;;;;;;29.20;28.15;100310.47;4922572;28;97037;-77
2021/05/20 09:19:38;;;;;;;3.17;2.53;;;;;;;28.72;29.25;100304.97;4954338;28;101411;-81
2021/05/20 09:22:14;;;;;;;4.55;3.05;;;;;;;29.55;29.20;100304.59;4938864;28;101231;-78
2021/05/20 09:24:44;;;;;;;2.88;2.53;;;;;;;29.05;29.73;100303.06;4924548;28;96896;-80
2021/05/20 09:27:23;;;;;;;15.40;14.05;;;;;;;28.00;30.93;100310.13;4941310;28;96961;-80
2021/05/20 09:30:08;;;;;;;9.90;9.20;;;;;;;27.95;29.98;100316.00;4954428;28;98658;-78
2021/05/20 09:32:59;;;;;;;3.00;2.25;;;;;;;29.02;29.38;100306.13;4939608;28;101282;-78
2021/05/20 09:35:28;;;;;;;2.45;2.22;;;;;;;29.51;28.63;100291.59;4957527;28;96734;-82
2021/05/20 09:37:56;;;;;;;2.83;1.92;;;;;;;29.38;28.31;100285.91;4941073;28;96810;-78
2021/05/20 09:40:26;;;;;;;3.95;2.17;;;;;;;28.12;29.16;100291.75;4956674;28;101548;-79
2021/05/20 09:42:52;;;;;;;6.80;6.17;;;;;;;27.18;30.25;100290.91;4957122;28;97330;-78
2021/05/20 09:45:20;;;;;;;21.10;7.75;;;;;;;26.85;30.99;100296.09;4937386;28;98090;-78
2021/05/20 09:47:47;;;;;;;9.45;6.68;;;;;;;26.29;31.56;100299.97;4939215;28;97624;-78
2021/05/20 09:50:20;;;;;;;8.18;7.07;;;;;;;25.91;32.27;100290.34;4939090;28;101277;-78
2021/05/20 09:52:46;;;;;;;10.50;9.80;;;;;;;25.73;33.52;100291.13;4923815;28;101734;-78
2021/05/20 09:55:20;;;;;;;10.68;9.85;;;;;;;25.22;34.82;100305.09;4924703;28;96766;-78
2021/05/20 09:57:46;;;;;;;11.98;10.20;;;;;;;24.51;38.63;100318.94;4923622;28;97710;-78
2021/05/20 10:00:26;;;;;;;10.07;9.27;;;;;;;24.08;39.20;100318.31;4940338;28;101125;-78
2021/05/20 10:03:03;;;;;;;5.25;2.20;;;;;;;23.43;39.76;100312.47;4957375;28;98633;-79
2021/05/20 10:05:32;;;;;;;3.03;1.90;;;;;;;23.43;39.11;100308.97;4973940;28;96629;-82
2021/05/20 10:07:59;;;;;;;2.83;1.70;;;;;;;22.99;40.65;100311.84;4941305;28;97078;-82
2021/05/20 10:10:25;;;;;;;5.15;1.70;;;;;;;22.88;41.40;100314.56;4940645;28;100005;-80
2021/05/20 10:12:50;;;;;;;7.32;6.72;;;;;;;23.49;40.86;100305.72;4934061;28;101556;-82
2021/05/20 10:15:21;;;;;;;5.80;5.35;;;;;;;24.06;41.16;100316.78;4921909;28;97068;-82
2021/05/20 10:17:48;;;;;;;6.68;6.07;;;;;;;24.68;39.17;100306.63;4921660;28;97235;-78
2021/05/20 10:20:19;;;;;;;6.00;5.60;;;;;;;24.90;38.72;100309.00;4921076;28;101213;-79
2021/05/20 10:22:45;;;;;;;7.97;7.43;;;;;;;25.03;37.98;100301.47;4920122;28;101451;-78
2021/05/20 10:25:14;;;;;;;3.67;2.20;;;;;;;25.09;37.53;100297.34;4915443;28;96809;-82
2021/05/20 10:27:41;;;;;;;3.33;2.35;;;;;;;25.20;38.05;100291.00;4938158;28;97008;-79
2021/05/20 10:30:09;;;;;;;2.85;2.30;;;;;;;25.18;38.28;100287.59;4937782;28;101696;-79
2021/05/20 10:32:35;;;;;;;4.05;2.45;;;;;;;25.00;39.76;100284.81;4921938;28;101426;-80
2021/05/20 10:35:09;;;;;;;4.38;2.60;;;;;;;25.10;39.22;100280.22;4922702;28;97268;-79
2021/05/20 10:37:41;;;;;;;12.55;2.67;;;;;;;24.89;38.88;100268.88;4939166;28;97244;-80
2021/05/20 10:40:09;;;;;;;5.35;2.55;;;;;;;24.89;38.04;100271.53;4939222;28;97906;-80
2021/05/20 10:42:42;;;;;;;3.72;2.00;;;;;;;24.97;36.92;100267.13;4937466;28;98353;-83
2021/05/20 10:45:19;;;;;;;5.68;2.28;;;;;;;25.05;36.50;100272.63;4937356;28;96886;-84
2021/05/20 10:48:03;;;;;;;1.90;1.70;;;;;;;24.71;35.39;100284.88;4936867;28;98009;-83
2021/05/20 10:50:51;;;;;;;4.40;2.08;;;;;;;24.51;34.78;100292.94;4937352;28;101525;-83
2021/05/20 10:54:02;;;;;;;4.55;1.70;;;;;;;24.52;35.52;100301.84;4959990;28;97104;-83
2021/05/20 10:56:34;;;;;;;4.88;2.15;;;;;;;23.94;36.31;100300.81;4973236;28;96943;-83
2021/05/20 10:59:01;;;;;;;4.18;2.42;;;;;;;23.37;37.31;100299.63;4943624;28;96951;-83
2021/05/20 11:01:27;;;;;;;4.43;2.17;;;;;;;23.13;38.74;100299.94;4943062;28;97975;-83
2021/05/20 11:04:04;;;;;;;5.03;2.10;;;;;;;23.14;39.32;100306.16;4942581;28;101924;-83
2021/05/20 11:06:35;;;;;;;5.07;1.75;;;;;;;22.81;38.22;100318.75;4926813;28;96708;-82
2021/05/20 11:09:02;;;;;;;10.48;1.83;;;;;;;22.52;39.04;100306.03;4959608;28;97054;-83
2021/05/20 11:11:31;;;;;;;6.07;1.60;;;;;;;22.33;38.67;100311.22;4943075;28;98699;-83
2021/05/20 11:14:26;;;;;;;3.60;1.45;;;;;;;22.23;38.37;100297.78;4939877;28;101529;-83
2021/05/20 11:16:52;;;;;;;7.38;1.60;;;;;;;22.22;39.17;100298.72;4972051;28;96927;-83
2021/05/20 11:19:25;;;;;;;2.75;1.45;;;;;;;22.37;38.89;100302.81;4935903;28;97217;-83
2021/05/20 11:24:35;;;;;;;2.85;1.25;;;;;;;22.90;40.46;100293.03;4939451;28;101525;-83
2021/05/20 11:27:25;;;;;;;4.25;1.42;;;;;;;22.90;41.47;100285.84;4941524;28;97025;-84
2021/05/20 11:29:50;;;;;;;10.35;2.00;;;;;;;22.58;41.59;100297.47;4939451;28;97123;-82
2021/05/20 11:32:31;;;;;;;5.18;1.42;;;;;;;22.71;40.92;100297.28;4940870;28;98085;-87
2021/05/20 11:35:33;;;;;;;4.65;1.42;;;;;;;22.43;40.12;100290.75;4941350;28;101475;-86
2021/05/20 11:37:58;;;;;;;6.57;1.60;;;;;;;22.26;39.44;100294.84;4943929;28;96995;-87
2021/05/20 11:40:33;;;;;;;4.82;1.50;;;;;;;22.14;40.38;100298.50;4938926;28;97623;-84
2021/05/20 11:43:00;;;;;;;2.55;1.50;;;;;;;22.14;39.69;100288.66;4941975;28;101633;-83
2021/05/20 11:45:28;;;;;;;3.20;1.10;;;;;;;22.38;39.81;100282.25;4941396;28;101047;-82
2021/05/20 11:47:58;;;;;;;4.95;1.80;;;;;;;22.55;39.15;100280.84;4925651;28;96871;-84
2021/05/20 11:50:24;;;;;;;15.80;2.38;;;;;;;22.65;40.12;100289.78;4940561;28;96680;-81
2021/05/20 11:52:51;;;;;;;9.55;1.95;;;;;;;22.76;39.74;100289.72;4938948;28;98668;-83
2021/05/20 11:55:20;;;;;;;5.82;1.42;;;;;;;22.74;38.69;100274.75;4933990;28;98397;-82
2021/05/20 11:57:46;;;;;;;2.08;1.27;;;;;;;22.79;38.42;100283.25;4923998;28;97378;-82
2021/05/20 12:00:13;;;;;;;2.35;1.30;;;;;;;22.73;37.62;100281.94;4956801;28;97491;-81
2021/05/20 12:02:41;;;;;;;2.75;1.48;;;;;;;22.70;38.02;100279.53;4940508;28;98673;-82
2021/05/20 12:05:09;;;;;;;5.80;1.65;;;;;;;22.86;37.97;100283.56;4938901;28;98577;-81
2021/05/20 12:07:38;;;;;;;1.30;1.20;;;;;;;22.85;38.29;100279.19;4925643;28;96845;-82
2021/05/20 12:10:17;;;;;;;3.47;1.30;;;;;;;23.09;37.85;100286.97;4942384;28;96976;-82